Forside
METAR-TAF:

METAR-TAF

Lufthavne :

Dehradun, Indien

Breddekreds: 30-11-23N, længdekreds: 78-10-49E, højde: 558 m

METAR: fraværende

Tid: 00:07 (18:37 UTC)

Vejrudsigter

Denne rapport blev lavet for 7 timer og 37 minutter siden, kl. 11:00 UTC
Foreløbig gælder fra 03 på 12 UTC til 03 på 21 UTC
Vind 5 kt fra sydvest
Sigt: 4000 m
Spredte skyer i en højde af 4000 ft
tåge/dis
ændring
fra 03 på 15 UTC til 03 på 17 UTC
Sigt: 3000 m
Spredte skyer i en højde af 10000 ft
tåge/dis

TAF: VIDN 031100Z 0312/0321 23005KT 4000 HZ SCT040 BECMG 0315/0317 3000 HZ SCT100

Vejrobservationer og prognoser fra mere end 4000 lufthavne (METAR og TAF).

De gule og røde prikker repræsenterer de meteorologiske stationer.

Flyt musen over at se navnet på stationen.

Så klik over at se vejr observationer og prognoser.

At skifte det kort: Klik på de grønne knapper med et sort kors for at zoome ind; på den grønne knap med en bindestreg for at zoome ud; eller på de grønne pile for tilstødende kort.


METAR-TAF: